createdAt,value
2018-09-20T00:00:31.318Z,0.00
2018-09-20T00:01:31.550Z,0.00
2018-09-20T00:02:31.778Z,0.00
2018-09-20T00:03:32.008Z,0.00
2018-09-20T00:04:32.239Z,0.00
2018-09-20T00:05:32.471Z,0.00
2018-09-20T00:06:32.704Z,0.00
2018-09-20T00:07:32.934Z,0.00
2018-09-20T00:08:33.161Z,0.00
2018-09-20T00:09:33.393Z,0.00
2018-09-20T00:10:33.624Z,0.00
2018-09-20T00:11:33.855Z,0.00
2018-09-20T00:12:34.084Z,0.00
2018-09-20T00:13:34.317Z,0.00
2018-09-20T00:14:34.546Z,0.00
2018-09-20T00:15:34.779Z,0.00
2018-09-20T00:16:35.005Z,0.00
2018-09-20T00:17:35.234Z,0.00
2018-09-20T00:18:35.464Z,0.00
2018-09-20T00:19:35.687Z,0.00
2018-09-20T00:20:35.919Z,0.00
2018-09-20T00:21:36.148Z,0.00
2018-09-20T00:22:36.376Z,0.00
2018-09-20T00:23:36.603Z,0.00
2018-09-20T00:24:36.839Z,0.00
2018-09-20T00:25:37.058Z,0.00
2018-09-20T00:26:37.286Z,0.00
2018-09-20T00:27:37.521Z,0.00
2018-09-20T00:28:37.750Z,0.00
2018-09-20T00:29:37.979Z,0.00
2018-09-20T00:30:38.208Z,0.00
2018-09-20T00:31:38.437Z,0.00
2018-09-20T00:32:38.672Z,0.00
2018-09-20T00:33:38.897Z,0.00
2018-09-20T00:34:39.123Z,0.00
2018-09-20T00:35:39.356Z,0.00
2018-09-20T00:36:39.583Z,0.00
2018-09-20T00:37:39.815Z,0.00
2018-09-20T00:38:40.041Z,0.00
2018-09-20T00:39:40.280Z,0.00
2018-09-20T00:40:40.495Z,0.00
2018-09-20T00:41:40.722Z,0.00
2018-09-20T00:42:40.952Z,0.00
2018-09-20T00:43:41.182Z,0.00
2018-09-20T00:44:41.414Z,0.00
2018-09-20T00:45:41.645Z,0.00
2018-09-20T00:46:41.873Z,0.00
2018-09-20T00:47:42.107Z,0.00
2018-09-20T00:48:42.332Z,0.00
2018-09-20T00:49:42.560Z,0.00
2018-09-20T00:50:42.793Z,0.00
2018-09-20T00:51:43.021Z,0.00
2018-09-20T00:52:43.248Z,0.00
2018-09-20T00:53:43.478Z,0.00
2018-09-20T00:54:43.708Z,0.00
2018-09-20T00:55:43.939Z,0.00
2018-09-20T00:56:44.168Z,0.00
2018-09-20T00:57:44.398Z,0.00
2018-09-20T00:58:44.630Z,0.00
2018-09-20T00:59:44.857Z,0.00
2018-09-20T01:00:45.086Z,0.00
2018-09-20T01:01:45.315Z,0.00
2018-09-20T01:02:45.546Z,0.00
2018-09-20T01:03:45.776Z,0.00
2018-09-20T01:04:46.010Z,0.00
2018-09-20T01:05:46.239Z,0.00
2018-09-20T01:06:46.469Z,0.00
2018-09-20T01:07:46.698Z,0.00
2018-09-20T01:08:46.928Z,0.00
2018-09-20T01:09:47.160Z,0.00
2018-09-20T01:10:47.383Z,0.00
2018-09-20T01:11:47.616Z,0.00
2018-09-20T01:12:47.849Z,0.00
2018-09-20T01:13:48.078Z,0.00
2018-09-20T01:14:48.304Z,0.00
2018-09-20T01:15:48.534Z,0.00
2018-09-20T01:16:48.763Z,0.00
2018-09-20T01:17:48.994Z,0.00
2018-09-20T01:18:49.226Z,0.00
2018-09-20T01:19:49.446Z,0.00
2018-09-20T01:20:49.678Z,0.00
2018-09-20T01:21:49.908Z,0.00
2018-09-20T01:22:50.136Z,0.00
2018-09-20T01:23:50.367Z,0.00
2018-09-20T01:24:50.600Z,0.00
2018-09-20T01:25:50.828Z,0.00
2018-09-20T01:26:51.060Z,0.00
2018-09-20T01:27:51.286Z,0.00
2018-09-20T01:28:51.517Z,0.00
2018-09-20T01:29:51.755Z,0.00
2018-09-20T01:30:51.985Z,0.00
2018-09-20T01:31:52.214Z,0.00
2018-09-20T01:32:52.443Z,0.00
2018-09-20T01:33:52.680Z,0.00
2018-09-20T01:34:52.908Z,0.00
2018-09-20T01:35:53.136Z,0.00
2018-09-20T01:36:53.368Z,0.00
2018-09-20T01:37:53.598Z,0.00
2018-09-20T01:38:53.827Z,0.00
2018-09-20T01:39:54.058Z,0.00
2018-09-20T01:40:54.287Z,0.00
2018-09-20T01:41:54.519Z,0.00
2018-09-20T01:42:54.751Z,0.00
2018-09-20T01:43:54.978Z,0.00
2018-09-20T01:44:55.203Z,0.00
2018-09-20T01:45:55.433Z,0.00
2018-09-20T01:46:55.663Z,0.00
2018-09-20T01:47:55.890Z,0.00
2018-09-20T01:48:56.119Z,0.00
2018-09-20T01:49:56.350Z,0.00
2018-09-20T01:50:56.579Z,0.00
2018-09-20T01:51:56.807Z,0.00
2018-09-20T01:52:57.036Z,0.00
2018-09-20T01:53:57.267Z,0.00
2018-09-20T01:54:57.495Z,0.00
2018-09-20T01:55:57.723Z,0.00
2018-09-20T01:56:57.953Z,0.00
2018-09-20T01:57:58.183Z,0.00
2018-09-20T01:58:58.411Z,0.00
2018-09-20T01:59:58.640Z,0.00
2018-09-20T02:00:58.874Z,0.00
2018-09-20T02:01:59.102Z,0.00
2018-09-20T02:02:59.331Z,0.00
2018-09-20T02:03:59.560Z,0.00
2018-09-20T02:04:59.792Z,0.00
2018-09-20T02:06:00.019Z,0.00
2018-09-20T02:07:00.252Z,0.00
2018-09-20T02:08:00.480Z,0.00
2018-09-20T02:09:00.708Z,0.00
2018-09-20T02:10:00.943Z,0.00
2018-09-20T02:11:01.172Z,0.00
2018-09-20T02:12:01.403Z,0.00
2018-09-20T02:13:01.632Z,0.00
2018-09-20T02:14:01.859Z,0.00
2018-09-20T02:15:02.094Z,0.00
2018-09-20T02:16:02.321Z,0.00
2018-09-20T02:17:02.550Z,0.00
2018-09-20T02:18:02.779Z,0.00
2018-09-20T02:19:03.012Z,0.00
2018-09-20T02:20:03.245Z,0.00
2018-09-20T02:21:03.463Z,0.00
2018-09-20T02:22:03.693Z,0.00
2018-09-20T02:23:03.923Z,0.00
2018-09-20T02:24:04.151Z,0.00
2018-09-20T02:25:04.383Z,0.00
2018-09-20T02:26:04.611Z,0.00
2018-09-20T02:27:04.841Z,0.00
2018-09-20T02:28:05.072Z,0.00
2018-09-20T02:29:05.303Z,0.00
2018-09-20T02:30:05.537Z,0.00
2018-09-20T02:31:05.766Z,0.00
2018-09-20T02:32:05.996Z,0.00
2018-09-20T02:33:06.226Z,0.00
2018-09-20T02:34:06.456Z,0.00
2018-09-20T02:35:06.684Z,0.00
2018-09-20T02:36:06.915Z,0.00
2018-09-20T02:37:07.154Z,0.00
2018-09-20T02:38:07.371Z,0.00
2018-09-20T02:39:07.600Z,0.00
2018-09-20T02:40:07.831Z,0.00
2018-09-20T02:41:08.063Z,0.00
2018-09-20T02:42:08.290Z,0.00
2018-09-20T02:43:08.521Z,0.00
2018-09-20T02:44:08.753Z,0.00
2018-09-20T02:45:08.980Z,0.00
2018-09-20T02:46:09.202Z,0.00
2018-09-20T02:47:09.447Z,0.00
2018-09-20T02:48:09.676Z,0.00
2018-09-20T02:49:09.905Z,0.00
2018-09-20T02:50:10.135Z,0.00
2018-09-20T02:51:10.391Z,0.00
2018-09-20T02:52:10.589Z,0.00
2018-09-20T02:53:10.821Z,0.00
2018-09-20T02:54:11.048Z,0.00
2018-09-20T02:55:11.278Z,0.00
2018-09-20T02:56:11.507Z,0.00
2018-09-20T02:57:11.738Z,0.00
2018-09-20T02:58:11.964Z,0.00
2018-09-20T02:59:12.197Z,0.00
2018-09-20T03:00:12.424Z,0.00
2018-09-20T03:01:12.652Z,0.00
2018-09-20T03:02:12.883Z,0.00
2018-09-20T03:03:13.117Z,0.00
2018-09-20T03:04:13.346Z,0.00
2018-09-20T03:05:13.571Z,0.00
2018-09-20T03:06:13.802Z,0.00
2018-09-20T03:07:14.033Z,0.00
2018-09-20T03:08:14.257Z,0.00
2018-09-20T03:09:14.487Z,0.00
2018-09-20T03:10:14.719Z,0.00
2018-09-20T03:11:14.957Z,0.00
2018-09-20T03:12:15.177Z,0.00
2018-09-20T03:13:15.406Z,0.00
2018-09-20T03:14:15.636Z,0.00
2018-09-20T03:15:15.868Z,0.00
2018-09-20T03:16:16.095Z,0.00
2018-09-20T03:17:16.327Z,0.00
2018-09-20T03:18:16.555Z,0.00
2018-09-20T03:19:16.784Z,0.00
2018-09-20T03:20:17.011Z,0.00
2018-09-20T03:21:17.241Z,0.00
2018-09-20T03:22:17.468Z,0.00
2018-09-20T03:23:17.704Z,0.00
2018-09-20T03:24:17.928Z,0.00
2018-09-20T03:25:18.160Z,0.00
2018-09-20T03:26:18.385Z,0.00
2018-09-20T03:27:18.614Z,0.00
2018-09-20T03:28:18.846Z,0.00
2018-09-20T03:29:19.073Z,0.00
2018-09-20T03:30:19.403Z,0.00
2018-09-20T03:31:19.533Z,0.00
2018-09-20T03:32:19.770Z,0.00
2018-09-20T03:33:19.991Z,0.00
2018-09-20T03:34:20.227Z,0.00
2018-09-20T03:35:20.452Z,0.00
2018-09-20T03:36:20.690Z,0.00
2018-09-20T03:37:20.910Z,0.00
2018-09-20T03:38:21.139Z,0.00
2018-09-20T03:39:21.369Z,0.00
2018-09-20T03:40:21.601Z,0.00
2018-09-20T03:41:21.833Z,0.00
2018-09-20T03:42:22.059Z,0.00
2018-09-20T03:43:22.287Z,0.00
2018-09-20T03:44:22.519Z,0.00
2018-09-20T03:45:22.744Z,0.00
2018-09-20T03:46:22.974Z,0.00
2018-09-20T03:47:23.205Z,0.00
2018-09-20T03:48:23.434Z,0.00
2018-09-20T03:49:23.659Z,0.00
2018-09-20T03:50:23.892Z,0.00
2018-09-20T03:51:24.123Z,0.00
2018-09-20T03:52:24.349Z,0.00
2018-09-20T03:53:24.579Z,0.00
2018-09-20T03:54:24.810Z,0.00
2018-09-20T03:55:25.041Z,0.00
2018-09-20T03:56:25.270Z,0.00
2018-09-20T03:57:25.502Z,0.00
2018-09-20T03:58:25.728Z,0.00
2018-09-20T03:59:25.960Z,0.00
2018-09-20T04:00:26.187Z,0.00
2018-09-20T04:01:26.417Z,0.00
2018-09-20T04:02:26.645Z,0.00
2018-09-20T04:03:26.874Z,0.00
2018-09-20T04:04:27.105Z,0.00
2018-09-20T04:05:27.332Z,0.00
2018-09-20T04:06:27.563Z,0.00
2018-09-20T04:07:27.800Z,0.00
2018-09-20T04:08:28.032Z,0.00
2018-09-20T04:09:28.292Z,0.00
2018-09-20T04:10:28.487Z,0.00
2018-09-20T04:11:28.716Z,0.00
2018-09-20T04:12:28.945Z,0.00
2018-09-20T04:13:29.173Z,0.00
2018-09-20T04:14:29.403Z,0.00
2018-09-20T04:15:29.635Z,0.00
2018-09-20T04:16:29.862Z,0.00
2018-09-20T04:17:30.092Z,0.00
2018-09-20T04:18:30.320Z,0.00
2018-09-20T04:19:30.556Z,0.00
2018-09-20T04:20:30.784Z,0.00
2018-09-20T04:21:31.013Z,0.00
2018-09-20T04:22:31.244Z,0.00
2018-09-20T04:23:31.476Z,0.00
2018-09-20T04:24:31.704Z,0.00
2018-09-20T04:25:31.936Z,0.00
2018-09-20T04:26:32.166Z,0.00
2018-09-20T04:27:32.397Z,0.00
2018-09-20T04:28:32.628Z,0.00
2018-09-20T04:29:32.857Z,4.00
2018-09-20T04:30:33.089Z,4.00
2018-09-20T04:31:33.327Z,0.00
2018-09-20T04:32:33.545Z,0.00
2018-09-20T04:33:33.773Z,4.00
2018-09-20T04:34:34.012Z,4.00
2018-09-20T04:35:34.231Z,4.00
2018-09-20T04:36:34.458Z,4.00
2018-09-20T04:37:34.693Z,4.00
2018-09-20T04:38:34.920Z,8.00
2018-09-20T04:39:35.148Z,8.00
2018-09-20T04:40:35.381Z,8.00
2018-09-20T04:41:35.608Z,8.00
2018-09-20T04:42:35.837Z,12.00
2018-09-20T04:43:36.068Z,12.00
2018-09-20T04:44:36.297Z,16.00
2018-09-20T04:45:36.528Z,16.00
2018-09-20T04:46:36.756Z,20.00
2018-09-20T04:47:36.986Z,24.00
2018-09-20T04:48:37.216Z,28.00
2018-09-20T04:49:37.449Z,32.00
2018-09-20T04:50:37.703Z,40.00
2018-09-20T04:51:37.900Z,48.00
2018-09-20T04:52:38.123Z,56.00
2018-09-20T04:53:38.354Z,64.00
2018-09-20T04:54:38.583Z,76.00
2018-09-20T04:55:38.813Z,84.00
2018-09-20T04:56:39.042Z,96.00
2018-09-20T04:57:39.275Z,104.00
2018-09-20T04:58:39.504Z,112.00
2018-09-20T04:59:39.740Z,124.00
2018-09-20T05:00:39.969Z,136.00
2018-09-20T05:01:40.199Z,148.00
2018-09-20T05:02:40.431Z,156.00
2018-09-20T05:03:40.662Z,172.00
2018-09-20T05:04:40.889Z,188.00
2018-09-20T05:05:41.118Z,204.00
2018-09-20T05:06:41.349Z,228.00
2018-09-20T05:07:41.579Z,248.00
2018-09-20T05:08:41.809Z,272.00
2018-09-20T05:09:42.037Z,308.00
2018-09-20T05:10:42.267Z,336.00
2018-09-20T05:11:42.500Z,364.00
2018-09-20T05:12:42.728Z,392.00
2018-09-20T05:13:42.955Z,412.00
2018-09-20T05:14:43.185Z,440.00
2018-09-20T05:15:43.416Z,476.00
2018-09-20T05:16:43.644Z,524.00
2018-09-20T05:17:43.875Z,576.00
2018-09-20T05:18:44.105Z,620.00
2018-09-20T05:19:44.337Z,664.00
2018-09-20T05:20:44.566Z,708.00
2018-09-20T05:21:44.797Z,752.00
2018-09-20T05:22:45.027Z,796.00
2018-09-20T05:23:45.255Z,840.00
2018-09-20T05:24:45.486Z,892.00
2018-09-20T05:25:45.745Z,948.00
2018-09-20T05:26:45.939Z,1008.00
2018-09-20T05:27:46.172Z,1072.00
2018-09-20T05:28:46.402Z,1100.00
2018-09-20T05:29:46.629Z,1128.00
2018-09-20T05:30:46.862Z,1168.00
2018-09-20T05:31:47.089Z,1212.00
2018-09-20T05:32:47.318Z,1264.00
2018-09-20T05:33:47.564Z,1320.00
2018-09-20T05:34:47.779Z,1392.00
2018-09-20T05:35:48.014Z,1472.00
2018-09-20T05:36:48.239Z,1560.00
2018-09-20T05:37:48.469Z,1672.00
2018-09-20T05:38:48.697Z,1764.00
2018-09-20T05:39:48.928Z,1816.00
2018-09-20T05:40:49.160Z,1864.00
2018-09-20T05:41:49.386Z,1912.00
2018-09-20T05:42:49.615Z,1964.00
2018-09-20T05:43:49.846Z,2024.00
2018-09-20T05:44:50.081Z,2088.00
2018-09-20T05:45:50.305Z,2172.00
2018-09-20T05:46:50.537Z,2260.00
2018-09-20T05:47:50.766Z,2376.00
2018-09-20T05:48:50.995Z,2476.00
2018-09-20T05:49:51.223Z,2540.00
2018-09-20T05:50:51.477Z,2624.00
2018-09-20T05:51:51.695Z,2700.00
2018-09-20T05:52:51.910Z,2756.00
2018-09-20T05:53:52.143Z,2860.00
2018-09-20T05:54:52.370Z,2936.00
2018-09-20T05:55:52.600Z,2948.00
2018-09-20T05:56:52.829Z,2964.00
2018-09-20T05:57:53.059Z,2948.00
2018-09-20T05:58:53.289Z,2932.00
2018-09-20T05:59:53.520Z,2964.00
2018-09-20T06:00:53.746Z,3012.00
2018-09-20T06:01:53.981Z,3060.00
2018-09-20T06:02:54.218Z,3116.00
2018-09-20T06:03:54.443Z,3184.00
2018-09-20T06:04:54.673Z,3268.00
2018-09-20T06:05:54.969Z,3412.00
2018-09-20T06:06:55.134Z,3604.00
2018-09-20T06:07:55.363Z,3628.00
2018-09-20T06:08:55.605Z,3608.00
2018-09-20T06:09:55.836Z,3596.00
2018-09-20T06:10:56.065Z,3640.00
2018-09-20T06:11:56.297Z,3752.00
2018-09-20T06:12:56.525Z,3804.00
2018-09-20T06:13:56.757Z,3796.00
2018-09-20T06:14:56.985Z,3852.00
2018-09-20T06:15:57.217Z,3840.00
2018-09-20T06:16:57.447Z,3712.00
2018-09-20T06:17:57.680Z,3620.00
2018-09-20T06:18:57.909Z,3652.00
2018-09-20T06:19:58.141Z,3724.00
2018-09-20T06:20:58.370Z,3880.00
2018-09-20T06:21:58.599Z,4000.00
2018-09-20T06:22:58.834Z,4028.00
2018-09-20T06:23:59.064Z,4024.00
2018-09-20T06:24:59.291Z,4064.00
2018-09-20T06:25:59.524Z,4064.00
2018-09-20T06:26:59.754Z,3912.00
2018-09-20T06:27:59.991Z,3812.00
2018-09-20T06:29:00.217Z,3768.00
2018-09-20T06:30:00.449Z,3740.00
2018-09-20T06:31:00.681Z,3748.00
2018-09-20T06:32:00.915Z,3748.00
2018-09-20T06:33:01.145Z,3732.00
2018-09-20T06:34:01.370Z,3708.00
2018-09-20T06:35:01.638Z,3700.00
2018-09-20T06:36:01.835Z,3708.00
2018-09-20T06:37:02.066Z,3692.00
2018-09-20T06:38:02.299Z,3672.00
2018-09-20T06:39:02.527Z,3644.00
2018-09-20T06:40:02.754Z,3688.00
2018-09-20T06:41:02.999Z,3700.00
2018-09-20T06:42:03.217Z,3672.00
2018-09-20T06:43:03.452Z,3616.00
2018-09-20T06:44:03.680Z,3600.00
2018-09-20T06:45:03.912Z,3652.00
2018-09-20T06:46:04.149Z,3676.00
2018-09-20T06:47:04.377Z,3696.00
2018-09-20T06:48:04.606Z,3744.00
2018-09-20T06:49:04.841Z,3832.00
2018-09-20T06:50:05.073Z,3812.00
2018-09-20T06:51:05.303Z,3840.00
2018-09-20T06:52:05.533Z,3820.00
2018-09-20T06:53:05.763Z,3796.00
2018-09-20T06:54:06.002Z,3836.00
2018-09-20T06:55:06.231Z,3904.00
2018-09-20T06:56:06.462Z,3880.00
2018-09-20T06:57:06.693Z,3860.00
2018-09-20T06:58:06.925Z,3832.00
2018-09-20T06:59:07.156Z,3768.00
2018-09-20T07:00:07.386Z,3728.00
2018-09-20T07:01:07.616Z,3740.00
2018-09-20T07:02:07.845Z,3836.00
2018-09-20T07:03:08.092Z,3956.00
2018-09-20T07:04:08.308Z,4004.00
2018-09-20T07:05:08.539Z,4060.00
2018-09-20T07:06:08.771Z,4020.00
2018-09-20T07:07:09.002Z,4072.00
2018-09-20T07:08:09.232Z,4144.00
2018-09-20T07:09:09.466Z,4456.00
2018-09-20T07:10:09.696Z,4800.00
2018-09-20T07:11:09.925Z,4696.00
2018-09-20T07:12:10.158Z,4868.00
2018-09-20T07:13:10.389Z,5288.00
2018-09-20T07:14:10.623Z,6176.00
2018-09-20T07:15:10.852Z,6368.00
2018-09-20T07:16:11.086Z,6376.00
2018-09-20T07:17:11.316Z,6536.00
2018-09-20T07:18:11.545Z,6560.00
2018-09-20T07:19:11.834Z,6624.00
2018-09-20T07:20:12.009Z,6568.00
2018-09-20T07:21:12.242Z,6440.00
2018-09-20T07:22:12.474Z,6804.00
2018-09-20T07:23:12.702Z,6856.00
2018-09-20T07:24:12.936Z,6792.00
2018-09-20T07:25:13.178Z,6704.00
2018-09-20T07:26:13.398Z,6828.00
2018-09-20T07:27:13.629Z,6796.00
2018-09-20T07:28:13.862Z,6944.00
2018-09-20T07:29:14.092Z,7036.00
2018-09-20T07:30:14.327Z,7024.00
2018-09-20T07:31:14.558Z,7032.00
2018-09-20T07:32:14.790Z,7064.00
2018-09-20T07:33:15.020Z,7076.00
2018-09-20T07:34:15.252Z,7068.00
2018-09-20T07:35:15.481Z,6996.00
2018-09-20T07:36:15.711Z,7108.00
2018-09-20T07:37:15.946Z,7104.00
2018-09-20T07:38:16.173Z,7100.00
2018-09-20T07:39:16.405Z,7156.00
2018-09-20T07:40:16.636Z,7192.00
2018-09-20T07:41:16.870Z,7208.00
2018-09-20T07:42:17.100Z,7196.00
2018-09-20T07:43:17.334Z,6952.00
2018-09-20T07:44:17.572Z,6992.00
2018-09-20T07:45:17.797Z,7200.00
2018-09-20T07:46:18.031Z,7204.00
2018-09-20T07:47:18.259Z,7208.00
2018-09-20T07:48:18.492Z,7236.00
2018-09-20T07:49:18.725Z,7208.00
2018-09-20T07:50:18.955Z,7252.00
2018-09-20T07:51:19.189Z,7264.00
2018-09-20T07:52:19.419Z,7212.00
2018-09-20T07:53:19.656Z,7316.00
2018-09-20T07:54:19.885Z,7248.00
2018-09-20T07:55:20.114Z,6928.00
2018-09-20T07:56:20.349Z,6924.00
2018-09-20T07:57:20.579Z,7100.00
2018-09-20T07:58:20.813Z,7232.00
2018-09-20T07:59:21.047Z,7188.00
2018-09-20T08:00:21.279Z,6900.00
2018-09-20T08:01:21.515Z,7284.00
2018-09-20T08:02:21.745Z,7384.00
2018-09-20T08:03:21.976Z,7376.00
2018-09-20T08:04:22.209Z,7448.00
2018-09-20T08:05:22.442Z,7476.00
2018-09-20T08:06:22.673Z,7456.00
2018-09-20T08:07:22.908Z,7476.00
2018-09-20T08:08:23.140Z,7544.00
2018-09-20T08:09:23.373Z,7196.00
2018-09-20T08:10:23.607Z,7108.00
2018-09-20T08:11:23.836Z,6828.00
2018-09-20T08:12:24.068Z,6928.00
2018-09-20T08:13:24.301Z,6864.00
2018-09-20T08:14:24.532Z,6988.00
2018-09-20T08:15:24.768Z,7124.00
2018-09-20T08:16:25.000Z,7188.00
2018-09-20T08:17:25.231Z,7156.00
2018-09-20T08:18:25.464Z,7164.00
2018-09-20T08:19:25.695Z,7332.00
2018-09-20T08:20:25.982Z,7352.00
2018-09-20T08:21:26.215Z,7252.00
2018-09-20T08:22:26.392Z,7304.00
2018-09-20T08:23:26.625Z,7300.00
2018-09-20T08:24:26.857Z,7096.00
2018-09-20T08:25:27.089Z,7188.00
2018-09-20T08:26:27.321Z,7128.00
2018-09-20T08:27:27.560Z,7476.00
2018-09-20T08:28:27.784Z,7324.00
2018-09-20T08:29:28.024Z,7352.00
2018-09-20T08:30:28.255Z,7584.00
2018-09-20T08:31:28.485Z,7476.00
2018-09-20T08:32:28.723Z,7408.00
2018-09-20T08:33:28.956Z,7352.00
2018-09-20T08:34:29.186Z,7388.00
2018-09-20T08:35:29.423Z,7292.00
2018-09-20T08:36:29.680Z,7408.00
2018-09-20T08:37:29.903Z,7140.00
2018-09-20T08:38:30.121Z,7036.00
2018-09-20T08:39:30.364Z,7060.00
2018-09-20T08:40:30.583Z,6876.00
2018-09-20T08:41:30.817Z,7004.00
2018-09-20T08:42:31.050Z,6928.00
2018-09-20T08:43:31.282Z,7232.00
2018-09-20T08:44:31.512Z,7420.00
2018-09-20T08:45:31.747Z,7496.00
2018-09-20T08:46:31.980Z,7528.00
2018-09-20T08:47:32.214Z,7348.00
2018-09-20T08:48:32.445Z,7316.00
2018-09-20T08:49:32.681Z,7248.00
2018-09-20T08:50:32.912Z,7008.00
2018-09-20T08:51:33.145Z,7152.00
2018-09-20T08:52:33.376Z,7156.00
2018-09-20T08:53:33.607Z,7128.00
2018-09-20T08:54:33.842Z,7232.00
2018-09-20T08:55:34.077Z,7180.00
2018-09-20T08:56:34.309Z,7344.00
2018-09-20T08:57:34.541Z,7252.00
2018-09-20T08:58:34.775Z,7204.00
2018-09-20T08:59:35.010Z,7264.00
2018-09-20T09:00:35.242Z,7324.00
2018-09-20T09:01:35.478Z,7156.00
2018-09-20T09:02:35.709Z,7192.00
2018-09-20T09:03:35.940Z,7148.00
2018-09-20T09:04:36.196Z,7100.00
2018-09-20T09:05:36.408Z,7080.00
2018-09-20T09:06:36.643Z,7060.00
2018-09-20T09:07:36.877Z,7100.00
2018-09-20T09:08:37.111Z,7144.00
2018-09-20T09:09:37.347Z,7080.00
2018-09-20T09:10:37.580Z,7056.00
2018-09-20T09:11:37.808Z,7032.00
2018-09-20T09:12:38.048Z,7020.00
2018-09-20T09:13:38.278Z,7076.00
2018-09-20T09:14:38.512Z,6968.00
2018-09-20T09:15:38.744Z,6940.00
2018-09-20T09:16:38.977Z,6888.00
2018-09-20T09:17:39.213Z,6916.00
2018-09-20T09:18:39.446Z,6880.00
2018-09-20T09:19:39.739Z,6844.00
2018-09-20T09:20:39.912Z,6788.00
2018-09-20T09:21:40.146Z,6752.00
2018-09-20T09:22:40.383Z,6744.00
2018-09-20T09:23:40.611Z,6728.00
2018-09-20T09:24:40.852Z,6624.00
2018-09-20T09:25:41.086Z,6472.00
2018-09-20T09:26:41.320Z,6412.00
2018-09-20T09:27:41.548Z,6420.00
2018-09-20T09:28:41.813Z,6404.00
2018-09-20T09:29:42.019Z,5376.00
2018-09-20T09:30:42.251Z,6324.00
2018-09-20T09:31:42.480Z,6464.00
2018-09-20T09:32:42.717Z,6488.00
2018-09-20T09:33:42.955Z,6448.00
2018-09-20T09:34:43.188Z,6480.00
2018-09-20T09:35:43.420Z,6108.00
2018-09-20T09:36:43.655Z,4892.00
2018-09-20T09:37:43.892Z,6636.00
2018-09-20T09:38:44.124Z,6676.00
2018-09-20T09:39:44.362Z,6564.00
2018-09-20T09:40:44.592Z,6420.00
2018-09-20T09:41:44.826Z,4908.00
2018-09-20T09:42:45.061Z,4812.00
2018-09-20T09:43:45.293Z,6460.00
2018-09-20T09:44:45.530Z,6328.00
2018-09-20T09:45:45.765Z,6332.00
2018-09-20T09:46:45.998Z,6288.00
2018-09-20T09:47:46.237Z,6360.00
2018-09-20T09:48:46.474Z,4776.00
2018-09-20T09:49:46.706Z,6368.00
2018-09-20T09:50:46.939Z,6196.00
2018-09-20T09:51:47.171Z,6120.00
2018-09-20T09:52:47.407Z,6160.00
2018-09-20T09:53:47.641Z,6172.00
2018-09-20T09:54:47.924Z,6284.00
2018-09-20T09:55:48.111Z,6276.00
2018-09-20T09:56:48.346Z,6352.00
2018-09-20T09:57:48.582Z,6376.00
2018-09-20T09:58:48.813Z,6320.00
2018-09-20T09:59:49.066Z,6260.00
2018-09-20T10:00:49.287Z,6132.00
2018-09-20T10:01:49.517Z,6164.00
2018-09-20T10:02:49.753Z,6168.00
2018-09-20T10:03:49.987Z,6176.00
2018-09-20T10:04:50.220Z,6260.00
2018-09-20T10:05:50.461Z,5844.00
2018-09-20T10:06:50.743Z,6228.00
2018-09-20T10:07:50.925Z,6212.00
2018-09-20T10:08:51.163Z,6272.00
2018-09-20T10:09:51.392Z,6252.00
2018-09-20T10:10:51.631Z,6284.00
2018-09-20T10:11:51.864Z,6268.00
2018-09-20T10:12:52.099Z,6212.00
2018-09-20T10:13:52.407Z,6180.00
2018-09-20T10:14:52.581Z,6040.00
2018-09-20T10:15:52.800Z,6056.00
2018-09-20T10:16:53.033Z,5752.00
2018-09-20T10:17:53.269Z,6204.00
2018-09-20T10:18:53.504Z,6220.00
2018-09-20T10:19:53.767Z,6220.00
2018-09-20T10:20:53.975Z,6212.00
2018-09-20T10:21:54.212Z,6148.00
2018-09-20T10:22:54.439Z,6208.00
2018-09-20T10:23:54.710Z,6216.00
2018-09-20T10:24:54.910Z,6212.00
2018-09-20T10:25:55.147Z,6184.00
2018-09-20T10:26:55.381Z,5952.00
2018-09-20T10:27:55.619Z,6100.00
2018-09-20T10:28:55.856Z,6156.00
2018-09-20T10:29:56.086Z,6172.00
2018-09-20T10:30:56.322Z,5964.00
2018-09-20T10:31:56.561Z,6224.00
2018-09-20T10:32:56.792Z,6176.00
2018-09-20T10:33:57.067Z,6148.00
2018-09-20T10:34:57.262Z,6132.00
2018-09-20T10:35:57.496Z,6144.00
2018-09-20T10:36:57.732Z,6140.00
2018-09-20T10:37:57.967Z,6148.00
2018-09-20T10:38:58.201Z,6116.00
2018-09-20T10:39:58.437Z,6104.00
2018-09-20T10:40:58.675Z,6088.00
2018-09-20T10:41:58.907Z,6116.00
2018-09-20T10:42:59.142Z,6152.00
2018-09-20T10:43:59.374Z,6136.00
2018-09-20T10:44:59.608Z,6112.00
2018-09-20T10:45:59.848Z,6092.00
2018-09-20T10:47:00.079Z,6084.00
2018-09-20T10:48:00.316Z,6096.00
2018-09-20T10:49:00.552Z,6040.00
2018-09-20T10:50:00.788Z,6080.00
2018-09-20T10:51:01.026Z,6092.00
2018-09-20T10:52:01.256Z,6084.00
2018-09-20T10:53:01.489Z,6100.00
2018-09-20T10:54:01.726Z,6128.00
2018-09-20T10:55:01.962Z,6108.00
2018-09-20T10:56:02.199Z,6088.00
2018-09-20T10:57:02.435Z,6112.00
2018-09-20T10:58:02.670Z,6092.00
2018-09-20T10:59:02.905Z,6092.00
2018-09-20T11:00:03.141Z,6068.00
2018-09-20T11:01:03.377Z,6068.00
2018-09-20T11:02:03.612Z,6084.00
2018-09-20T11:03:03.915Z,5992.00
2018-09-20T11:04:04.082Z,6052.00
2018-09-20T11:05:04.318Z,6096.00
2018-09-20T11:06:04.555Z,6116.00
2018-09-20T11:07:04.786Z,6124.00
2018-09-20T11:08:05.022Z,6136.00
2018-09-20T11:09:05.254Z,6160.00
2018-09-20T11:10:05.493Z,6160.00
2018-09-20T11:11:05.776Z,6160.00
2018-09-20T11:12:05.963Z,6168.00
2018-09-20T11:13:06.196Z,6112.00
2018-09-20T11:14:06.430Z,6132.00
2018-09-20T11:15:06.665Z,6132.00
2018-09-20T11:16:06.907Z,6116.00
2018-09-20T11:17:07.141Z,6124.00
2018-09-20T11:18:07.377Z,6128.00
2018-09-20T11:19:07.612Z,5932.00
2018-09-20T11:20:07.847Z,6168.00
2018-09-20T11:21:08.082Z,6148.00
2018-09-20T11:22:08.318Z,6160.00
2018-09-20T11:23:08.553Z,6156.00
2018-09-20T11:24:08.794Z,6200.00
2018-09-20T11:25:09.026Z,6172.00
2018-09-20T11:26:09.262Z,6160.00
2018-09-20T11:27:09.495Z,6184.00
2018-09-20T11:28:09.746Z,6212.00
2018-09-20T11:29:09.966Z,6200.00
2018-09-20T11:30:10.199Z,6232.00
2018-09-20T11:31:10.435Z,6212.00
2018-09-20T11:32:10.671Z,6224.00
2018-09-20T11:33:10.904Z,6236.00
2018-09-20T11:34:11.139Z,6212.00
2018-09-20T11:35:11.374Z,6204.00
2018-09-20T11:36:11.655Z,6188.00
2018-09-20T11:37:11.843Z,6220.00
2018-09-20T11:38:12.078Z,6188.00
2018-09-20T11:39:12.314Z,6196.00
2018-09-20T11:40:12.553Z,6200.00
2018-09-20T11:41:12.782Z,6208.00
2018-09-20T11:42:13.017Z,6204.00
2018-09-20T11:43:13.252Z,6208.00
2018-09-20T11:44:13.491Z,6208.00
2018-09-20T11:45:13.724Z,6228.00
2018-09-20T11:46:13.958Z,6232.00
2018-09-20T11:47:14.193Z,6260.00
2018-09-20T11:48:14.429Z,6244.00
2018-09-20T11:49:14.660Z,6232.00
2018-09-20T11:50:14.898Z,6240.00
2018-09-20T11:51:15.132Z,6232.00
2018-09-20T11:52:15.366Z,6248.00
2018-09-20T11:53:15.602Z,6252.00
2018-09-20T11:54:15.857Z,6268.00
2018-09-20T11:55:16.093Z,6256.00
2018-09-20T11:56:16.329Z,6268.00
2018-09-20T11:57:16.563Z,6272.00
2018-09-20T11:58:16.802Z,6568.00
2018-09-20T11:59:17.035Z,6564.00
2018-09-20T12:00:17.270Z,6568.00
2018-09-20T12:01:17.515Z,6548.00
2018-09-20T12:02:17.742Z,6660.00
2018-09-20T12:03:17.979Z,6580.00
2018-09-20T12:04:18.215Z,6304.00
2018-09-20T12:05:18.450Z,6284.00
2018-09-20T12:06:18.690Z,6248.00
2018-09-20T12:07:18.925Z,6208.00
2018-09-20T12:08:19.167Z,6208.00
2018-09-20T12:09:19.399Z,6216.00
2018-09-20T12:10:19.632Z,6224.00
2018-09-20T12:11:19.870Z,6248.00
2018-09-20T12:12:20.105Z,6252.00
2018-09-20T12:13:20.340Z,6260.00
2018-09-20T12:14:20.580Z,6276.00
2018-09-20T12:15:20.812Z,6292.00
2018-09-20T12:16:21.595Z,6296.00
2018-09-20T12:17:21.329Z,6308.00
2018-09-20T12:18:21.562Z,6256.00
2018-09-20T12:19:21.800Z,6312.00
2018-09-20T12:20:22.034Z,6284.00
2018-09-20T12:21:22.270Z,6284.00
2018-09-20T12:22:22.506Z,6272.00
2018-09-20T12:23:22.744Z,6208.00
2018-09-20T12:24:22.977Z,6004.00
2018-09-20T12:25:23.216Z,6224.00
2018-09-20T12:26:23.451Z,6192.00
2018-09-20T12:27:23.687Z,6188.00
2018-09-20T12:28:23.921Z,6168.00
2018-09-20T12:29:24.156Z,6128.00
2018-09-20T12:30:24.392Z,6052.00
2018-09-20T12:31:24.653Z,6060.00
2018-09-20T12:32:24.893Z,6036.00
2018-09-20T12:33:25.100Z,6156.00
2018-09-20T12:34:25.336Z,6220.00
2018-09-20T12:35:25.590Z,6264.00
2018-09-20T12:36:25.809Z,6224.00